Date,TemperatureHighF,TemperatureAvgF,TemperatureLowF,DewpointHighF,DewpointAvgF,DewpointLowF,HumidityHigh,HumidityAvg,HumidityLow,PressureMaxIn,PressureMinIn,WindSpeedMaxMPH,WindSpeedAvgMPH,GustSpeedMaxMPH,PrecipitationSumIn
2013-1-1,30,28,26,26,25,23,93,90,86,0.00,40.00,0,0,0,0.00
2013-1-2,29,28,26,26,25,23,91,90,89,0.00,40.00,0,0,0,0.00
2013-1-3,31,29,27,28,26,24,90,89,88,0.00,40.00,0,0,0,0.00
2013-1-4,48,30,27,48,28,25,100,92,88,0.00,40.00,0,0,0,0.00
2013-2-18,40,35,31,32,31,28,97,86,63,0.00,40.00,0,0,0,0.00
2013-2-19,49,35,30,32,29,26,98,80,50,0.00,40.00,0,0,0,0.00
2013-2-20,47,38,32,35,29,25,99,72,44,0.00,40.00,0,0,0,0.00
2013-2-21,44,39,32,35,31,27,100,74,50,0.00,40.00,0,0,0,0.00
2013-2-22,43,39,35,41,34,30,92,85,74,0.00,40.00,0,0,0,0.04
2013-2-23,42,36,32,34,30,26,98,81,62,0.00,40.00,0,0,0,0.01
2013-2-24,50,39,33,36,31,25,99,73,48,0.00,40.00,0,0,0,0.21
2013-2-25,43,37,34,38,35,33,100,95,77,0.00,40.00,0,0,0,0.07
2013-2-26,48,38,32,38,33,26,100,85,50,0.00,40.00,0,0,0,0.20
2013-2-27,52,41,33,40,35,31,99,81,54,0.00,40.00,0,0,0,0.22
2013-2-28,53,45,40,52,44,36,100,96,87,0.00,40.00,0,0,0,0.33
2013-3-1,61,48,44,50,46,44,100,95,56,0.00,40.00,0,0,0,0.01
2013-3-2,60,46,38,50,44,35,100,94,70,0.00,40.00,0,0,0,0.01
2013-3-3,51,39,34,37,28,24,94,68,35,0.00,40.00,0,0,0,0.02
2013-3-4,48,40,33,26,24,21,68,52,35,0.00,40.00,0,0,0,0.01
2013-3-5,43,39,36,38,31,21,100,74,52,0.00,40.00,0,0,0,0.00
2013-3-6,43,38,36,39,37,36,100,98,86,0.00,40.00,0,0,0,0.00
2013-3-7,52,40,33,41,37,33,100,89,58,0.00,40.00,0,0,0,0.07
2013-3-8,56,40,33,38,32,28,100,76,37,0.00,40.00,0,0,0,0.31
2013-3-9,60,45,35,34,23,12,86,47,21,0.00,40.00,0,0,0,0.13
2013-3-10,61,49,42,42,31,7,85,53,21,0.00,40.00,0,0,0,0.01
2013-3-11,50,46,42,48,43,36,100,90,68,0.00,40.00,0,0,0,0.02
2013-3-12,62,48,44,48,43,36,100,87,48,0.00,40.00,0,0,0,0.01
2013-3-13,64,50,42,49,42,34,94,73,51,0.00,40.00,0,0,0,0.00
2013-3-14,62,52,46,49,42,30,94,72,34,0.00,40.00,0,0,0,0.00
2013-3-15,57,47,41,43,41,37,100,79,54,0.00,40.00,0,0,0,0.00
2013-3-16,49,40,33,40,36,32,100,87,52,0.00,40.00,0,0,0,0.01
2013-3-17,43,34,32,34,31,28,100,89,63,0.00,40.00,0,0,0,0.01
2013-3-18,49,36,33,32,28,17,82,71,47,0.00,40.00,0,0,0,0.25
2013-3-19,44,38,33,38,30,15,100,73,44,0.00,40.00,0,0,0,0.11
2013-3-20,47,40,34,46,39,33,100,98,91,0.00,40.00,0,0,0,0.93
2013-3-21,46,35,32,35,33,31,98,92,60,0.00,40.00,0,0,0,0.27
2013-3-22,44,34,30,32,29,28,96,84,52,0.00,40.00,0,0,0,0.25
2013-3-23,47,36,29,31,28,23,95,76,47,0.00,40.00,0,0,0,0.07
2013-3-24,46,39,32,31,28,23,94,65,42,0.00,40.00,0,0,0,0.01
2013-3-25,51,43,34,38,29,22,84,58,39,0.00,40.00,0,0,0,0.00
2013-3-26,54,45,38,40,33,28,97,63,44,0.00,40.00,0,0,0,0.01
2013-3-27,54,44,39,50,41,38,100,89,66,0.00,40.00,0,0,0,0.13
2013-3-28,55,51,47,50,48,44,100,88,78,0.00,40.00,0,0,0,0.15
2013-3-29,63,52,45,51,47,44,100,85,58,0.00,40.00,0,0,0,0.07
2013-3-30,65,56,46,48,43,-100,100,70,50,0.00,40.00,0,0,0,0.01
2013-3-31,67,56,46,48,39,35,98,56,34,0.00,40.00,0,0,0,0.00
2013-4-1,66,52,48,49,46,43,100,82,51,0.00,40.00,0,0,0,0.00
2013-4-2,65,49,44,45,43,41,98,81,45,0.00,40.00,0,0,0,0.00
2013-4-3,65,52,42,49,42,36,97,70,38,0.00,40.00,0,0,0,0.00
2013-4-4,56,51,44,52,46,41,100,85,70,0.00,40.00,0,0,0,0.18
2013-4-5,57,46,42,46,43,41,100,91,58,0.00,40.00,0,0,0,0.12
2013-4-6,54,42,38,44,40,36,100,92,53,0.00,40.00,0,0,0,0.27
2013-4-7,44,38,34,41,38,34,100,97,75,0.00,40.00,0,0,0,0.58
2013-4-8,50,39,34,38,34,31,100,84,61,0.00,40.00,0,0,0,0.17
2013-4-9,59,42,33,41,35,29,93,79,47,0.00,40.00,0,0,0,0.02
2013-4-10,56,45,41,48,40,34,97,82,63,0.00,40.00,0,0,0,0.01
2013-4-11,51,41,38,37,32,30,82,72,56,0.00,40.00,0,0,0,0.01
2013-4-12,57,40,32,38,31,25,85,72,45,0.00,40.00,0,0,0,0.00
2013-4-13,47,37,33,37,31,26,97,81,45,0.00,40.00,0,0,0,0.09
2013-4-14,47,37,32,33,29,26,92,75,48,0.00,40.00,0,0,0,0.01
2013-4-15,44,37,33,36,32,27,100,83,58,0.00,40.00,0,0,0,0.05
2013-4-16,47,38,33,34,31,22,100,76,43,0.00,40.00,0,0,0,0.01
2013-4-17,57,41,33,36,26,15,84,57,24,0.00,40.00,0,0,0,0.00
2013-4-18,58,44,39,43,38,35,93,83,54,0.00,40.00,0,0,0,0.00
2013-4-19,57,46,42,45,42,39,98,88,55,0.00,40.00,0,0,0,0.06
2013-4-20,55,45,41,41,38,32,94,77,42,0.00,40.00,0,0,0,0.01
2013-4-21,56,43,37,42,37,33,99,80,51,0.00,40.00,0,0,0,0.02
2013-4-22,54,43,33,40,28,19,100,60,29,0.00,40.00,0,0,0,0.02
2013-4-23,61,48,35,26,20,13,48,34,18,0.00,40.00,0,0,0,0.00
2013-4-24,68,53,40,34,22,15,51,31,18,0.00,40.00,0,0,0,0.00
2013-4-25,72,57,46,37,32,18,54,40,26,0.00,40.00,0,0,0,0.00
2013-4-26,76,62,50,37,30,23,58,34,17,0.00,40.00,0,0,0,0.00
2013-4-27,70,57,50,39,30,23,66,38,18,0.00,40.00,0,0,0,0.00
2013-4-28,59,49,45,41,38,32,81,65,39,0.00,40.00,0,0,0,0.00
2013-4-29,51,46,40,43,37,27,91,74,41,0.00,40.00,0,0,0,0.01
2013-4-30,47,41,34,27,25,23,75,54,39,0.00,40.00,0,0,0,0.00
2013-5-1,60,46,32,28,25,21,78,48,22,0.00,40.00,0,0,0,0.00
2013-5-2,68,56,42,34,27,21,50,34,19,0.00,40.00,0,0,0,0.00
2013-5-3,72,58,48,36,32,26,54,39,24,0.00,40.00,0,0,0,0.00
2013-5-4,69,60,46,36,30,25,55,34,21,0.00,40.00,0,0,0,0.00
2013-5-5,71,58,47,36,31,27,51,37,25,0.00,40.00,0,0,0,0.00
2013-5-6,80,65,53,43,36,28,51,36,15,0.00,40.00,0,0,0,0.00
2013-5-7,77,64,56,46,44,39,62,49,32,0.00,40.00,0,0,0,0.00
2013-5-8,79,63,53,47,44,41,71,53,31,0.00,40.00,0,0,0,0.00
2013-5-9,83,66,54,50,41,33,63,42,25,0.00,40.00,0,0,0,0.00
2013-5-10,86,72,62,46,38,-100,41,31,24,0.00,40.00,0,0,0,0.00
2013-5-11,84,68,58,54,42,-100,67,41,28,0.00,40.00,0,0,0,0.00
2013-5-12,70,62,51,55,49,39,93,64,45,0.00,40.00,0,0,0,0.00
2013-5-13,64,51,42,50,44,35,100,79,42,0.00,40.00,0,0,0,0.00
2013-5-14,61,47,34,37,34,29,95,63,33,0.00,40.00,0,0,0,0.00
2013-5-15,54,47,41,45,37,30,95,70,42,0.00,40.00,0,0,0,0.02
2013-5-16,61,42,39,50,22,-100,100,90,62,0.00,40.00,0,0,0,0.18
2013-5-17,59,46,41,45,35,-100,100,82,50,0.00,40.00,0,0,0,0.32
2013-5-18,61,46,36,45,40,36,100,82,56,0.00,40.00,0,0,0,0.01
2013-5-19,60,51,43,44,40,38,92,70,48,0.00,40.00,0,0,0,0.00
2013-5-20,72,55,39,45,38,34,85,59,26,0.00,40.00,0,0,0,0.00
2013-5-21,55,44,35,44,36,28,100,74,48,0.00,40.00,0,0,0,0.06
2013-5-22,41,37,33,39,34,26,100,88,72,0.00,40.00,0,0,0,0.26
2013-5-23,49,41,36,44,40,36,100,95,82,0.00,40.00,0,0,0,0.35
2013-5-24,55,44,39,43,39,36,100,84,58,0.00,40.00,0,0,0,0.08
2013-5-25,58,47,36,45,40,36,100,80,49,0.00,40.00,0,0,0,0.01
2013-5-26,60,50,41,48,44,40,100,83,53,0.00,40.00,0,0,0,0.19
2013-5-27,53,46,39,52,45,39,100,97,90,0.00,40.00,0,0,0,0.22
2013-5-28,60,48,41,47,44,41,100,87,58,0.00,40.00,0,0,0,0.17
2013-5-29,57,47,42,48,44,39,100,89,58,0.00,40.00,0,0,0,0.37
2013-5-30,57,46,36,41,38,36,100,76,49,0.00,40.00,0,0,0,0.04
2013-5-31,69,51,40,47,41,38,100,71,45,0.00,40.00,0,0,0,0.01
2013-6-1,72,57,46,48,44,34,88,64,29,0.00,40.00,0,0,0,0.00
2013-6-2,65,55,44,48,44,42,100,70,44,0.00,40.00,0,0,0,0.00
2013-6-3,75,57,43,43,38,33,83,54,25,0.00,40.00,0,0,0,0.00
2013-6-4,75,62,49,45,38,29,64,41,29,0.00,40.00,0,0,0,0.00
2013-6-5,83,69,54,49,41,33,61,38,24,0.00,40.00,0,0,0,0.00
2013-6-6,81,68,56,53,45,34,73,45,25,0.00,40.00,0,0,0,0.00
2013-6-7,75,65,53,50,36,18,67,36,17,0.00,40.00,0,0,0,0.00
2013-6-8,78,66,54,43,28,4,57,26,12,0.00,40.00,0,0,0,0.00
2013-6-9,73,60,50,44,34,21,68,41,19,0.00,40.00,0,0,0,0.00
2013-6-10,70,59,45,38,31,21,72,37,21,0.00,40.00,0,0,0,0.00
2013-6-11,58,49,40,39,36,32,83,62,41,0.00,40.00,0,0,0,0.00
2013-6-12,60,49,40,40,37,34,86,65,43,0.00,40.00,0,0,0,0.00
2013-6-13,59,47,39,40,38,36,93,72,48,0.00,40.00,0,0,0,0.00
2013-6-14,72,50,37,43,31,-100,95,62,34,0.00,40.00,1,0,9,0.00
2013-6-15,79,63,46,49,39,29,72,44,22,0.00,40.00,7,2,14,0.00
2013-6-16,76,61,53,47,44,37,72,54,34,0.00,40.00,6,3,19,0.00
2013-6-17,70,58,47,49,44,39,79,60,40,0.00,40.00,4,2,16,0.00
2013-6-18,63,52,43,44,40,35,94,66,39,0.00,40.00,6,2,21,0.00
2013-6-19,57,49,43,39,37,33,75,62,50,0.00,40.00,8,6,25,0.00
2013-6-20,55,46,42,37,36,34,75,67,48,0.00,40.00,6,4,20,0.00
2013-6-22,73,66,56,46,41,39,59,42,30,0.00,40.00,5,2,14,0.00
2013-6-23,67,57,52,55,48,39,100,72,48,0.00,40.00,4,1,10,0.19
2013-6-24,60,52,48,53,50,48,100,93,65,0.00,40.00,1,0,11,0.25
2013-6-25,56,51,47,55,51,47,100,99,91,0.00,40.00,2,0,11,0.44
2013-6-26,63,54,48,57,53,48,100,96,73,0.00,40.00,3,0,7,0.09
2013-6-27,72,60,50,60,55,50,100,86,61,0.00,40.00,2,0,9,0.01
2013-6-28,85,70,55,63,58,55,100,69,41,0.00,40.00,6,2,13,0.01
2013-6-29,85,72,62,61,56,44,87,60,34,0.00,40.00,4,2,14,0.00
2013-6-30,90,76,58,60,54,39,97,50,29,0.00,40.00,6,2,16,0.00
2013-7-1,95,78,67,63,56,50,70,48,28,0.00,40.00,6,2,15,0.00
2013-7-2,93,77,66,61,53,40,68,47,31,0.00,40.00,5,2,17,0.00
2013-7-3,83,72,60,46,38,24,49,31,16,0.00,40.00,5,3,17,0.00
2013-7-4,75,66,53,44,38,28,48,37,24,0.00,40.00,7,5,24,0.00
2013-7-5,67,56,48,44,41,36,77,57,41,0.00,40.00,9,5,25,0.00
2013-7-6,79,60,47,50,43,37,76,57,27,0.00,40.00,4,2,13,0.00
2013-7-7,81,66,54,51,45,36,78,50,28,0.00,40.00,5,2,17,0.00
2013-7-8,81,67,55,46,38,-100,49,36,25,0.00,40.00,6,3,21,0.00
2013-7-9,90,74,57,53,46,34,55,37,26,0.00,40.00,5,2,13,0.00
2013-7-10,81,69,58,47,39,-100,61,36,26,0.00,40.00,9,4,29,0.00
2013-7-11,74,69,54,32,26,22,33,20,15,0.00,40.00,6,5,24,0.00
2013-7-12,72,63,50,39,34,23,50,34,25,0.00,40.00,7,5,25,0.00
2013-7-13,79,64,45,35,29,24,53,29,16,0.00,40.00,5,2,18,0.00
2013-7-14,86,73,53,42,36,22,43,27,19,0.00,40.00,5,2,18,0.00
2013-7-15,82,72,54,40,36,24,44,28,21,0.00,40.00,6,3,13,0.00
2013-7-16,83,73,63,45,40,36,43,31,23,0.00,40.00,6,2,14,0.00
2013-7-17,84,68,56,52,44,39,69,44,26,0.00,40.00,5,2,16,0.00
2013-7-18,89,79,65,41,34,27,26,20,15,0.00,40.00,4,2,14,0.00
2013-7-19,92,81,61,38,32,17,28,17,13,0.00,40.00,4,2,13,0.00
2013-7-20,90,68,63,34,14,-100,26,16,12,0.00,40.00,5,3,15,0.00
2013-7-21,89,79,64,42,39,17,37,25,16,0.00,40.00,7,4,23,0.00
2013-7-22,86,83,65,40,36,31,30,19,15,0.00,40.00,7,5,16,0.00
2013-7-25,91,86,67,34,30,22,18,13,10,0.00,40.00,5,3,20,0.00
2013-7-26,91,85,77,35,30,25,22,15,10,0.00,40.00,7,6,23,0.00
2013-7-27,82,76,64,34,30,26,24,19,17,0.00,40.00,6,5,22,0.00
2013-7-28,77,65,53,39,34,29,46,32,24,0.00,40.00,7,5,21,0.00
2013-7-29,83,68,50,40,34,30,47,30,20,0.00,40.00,4,2,12,0.00
2013-7-30,84,69,53,45,40,31,59,36,23,0.00,40.00,4,2,15,0.00
2013-7-31,82,71,61,41,36,20,43,28,20,0.00,40.00,2,0,10,0.00
2013-8-1,66,57,50,49,45,43,79,66,50,0.00,40.00,7,4,20,0.00
2013-8-2,66,52,46,48,44,42,89,75,51,0.00,40.00,4,2,16,0.00
2013-8-3,77,64,51,52,47,40,76,56,37,0.00,40.00,3,1,12,0.00
2013-8-4,84,69,54,52,49,47,83,54,30,0.00,40.00,5,1,14,0.00
2013-8-5,87,72,59,50,46,42,63,42,24,0.00,40.00,5,2,15,0.00
2013-8-6,90,73,59,46,36,23,54,28,17,0.00,40.00,4,2,14,0.00
2013-8-7,85,69,60,45,36,23,51,32,16,0.00,40.00,8,4,20,0.00
2013-8-8,84,68,62,50,45,41,56,45,31,0.00,40.00,5,3,20,0.00
2013-8-9,87,69,55,57,48,42,100,52,26,0.00,40.00,3,1,22,0.14
2013-8-10,76,62,53,57,54,47,100,79,47,0.00,40.00,5,1,17,0.24
2013-8-11,78,63,52,55,51,47,100,70,37,0.00,40.00,4,2,15,0.10
2013-8-12,80,63,51,54,47,39,83,57,38,0.00,40.00,4,1,12,0.00
2013-8-13,85,72,54,47,39,-100,75,34,23,0.00,40.00,5,2,11,0.00
2013-8-14,84,69,59,52,44,37,58,42,27,0.00,40.00,3,1,14,0.00
2013-8-15,82,62,55,57,38,-100,79,49,33,0.00,40.00,3,1,18,0.00
2013-8-16,81,64,57,60,51,-100,93,70,46,0.00,40.00,4,1,16,0.00
2013-8-17,78,64,55,55,48,-100,94,62,40,0.00,40.00,6,2,20,0.00
2013-8-18,85,67,54,52,47,38,79,53,28,0.00,40.00,6,2,20,0.00
2013-8-19,79,62,56,47,34,-100,59,42,31,0.00,40.00,6,3,17,0.00
2013-8-20,84,68,60,46,36,-100,59,37,15,0.00,40.00,6,2,17,0.00
2013-8-21,82,70,54,45,37,31,56,32,18,0.00,40.00,7,2,14,0.00
2013-8-22,78,68,59,57,43,29,86,43,25,0.00,40.00,2,0,10,0.02
2013-8-23,77,63,51,59,52,45,100,71,38,0.00,40.00,3,1,11,0.14
2013-8-24,72,56,50,51,46,-100,92,72,44,0.00,40.00,5,2,19,0.01
2013-8-25,68,55,50,58,50,46,100,86,50,0.00,40.00,3,0,15,0.37
2013-8-26,74,57,49,61,52,48,100,87,40,0.00,40.00,4,0,13,0.12
2013-8-27,72,55,47,51,49,47,100,84,46,0.00,40.00,5,1,12,0.00
2013-8-28,76,69,60,58,56,54,85,65,54,0.00,40.00,3,1,13,0.00
2013-8-29,77,63,58,65,55,52,99,76,43,0.00,40.00,7,1,23,0.03
2013-8-30,74,61,55,57,54,51,100,80,52,0.00,40.00,3,0,13,0.03
2013-8-31,82,65,53,54,48,-100,100,63,32,0.00,40.00,7,2,14,0.00
2013-9-1,86,70,59,54,48,40,74,48,31,0.00,40.00,5,2,13,0.00
2013-9-2,77,63,55,55,52,50,84,67,44,0.00,40.00,5,3,17,0.00
2013-9-3,75,63,54,53,51,49,83,66,44,0.00,40.00,4,1,14,0.00
2013-9-4,80,63,55,52,50,45,83,63,37,0.00,40.00,5,2,13,0.00
2013-9-5,71,57,48,55,50,46,100,78,52,0.00,40.00,5,2,23,0.12
2013-9-6,59,52,47,54,50,47,100,96,74,0.00,40.00,4,1,19,0.53
2013-9-7,74,58,47,55,49,-100,100,76,48,0.00,40.00,5,1,13,0.24
2013-9-8,81,64,49,54,50,44,100,67,29,0.00,40.00,4,1,11,0.00
2013-9-9,86,68,56,53,46,40,69,47,26,0.00,40.00,4,1,14,0.00
2013-9-10,83,71,59,53,47,41,68,43,26,0.00,40.00,8,3,16,0.00
2013-9-11,88,73,61,50,46,41,55,40,24,0.00,40.00,7,2,15,0.00
2013-9-12,92,75,64,51,46,42,51,38,24,0.00,40.00,5,2,12,0.00
2013-9-13,88,73,65,49,45,39,50,38,26,0.00,40.00,6,3,20,0.00
2013-9-14,87,76,63,49,43,-100,46,33,25,0.00,40.00,5,2,14,0.00
2013-9-15,78,64,54,53,49,45,92,61,40,0.00,40.00,10,3,25,0.02
2013-9-16,67,55,48,50,47,45,98,78,48,0.00,40.00,5,3,16,0.02
2013-9-17,61,52,46,49,43,37,93,72,48,0.00,40.00,10,5,33,0.00
2013-9-18,46,45,43,46,41,33,100,87,67,0.00,40.00,7,4,22,0.01
2013-9-19,69,55,42,41,36,33,73,51,30,0.00,40.00,7,2,16,0.00
2013-9-20,72,57,46,50,38,31,100,52,29,0.00,40.00,11,2,26,0.07
2013-9-21,62,50,42,51,44,-100,100,87,62,0.00,40.00,6,1,15,0.07
2013-9-22,54,47,41,51,44,39,100,92,62,0.00,40.00,10,2,25,0.26
2013-9-23,54,48,43,48,44,40,100,87,73,0.00,40.00,5,1,16,0.04
2013-9-24,55,45,41,45,41,38,100,87,54,0.00,40.00,5,2,16,0.04
2013-9-25,53,43,37,40,38,36,100,81,57,0.00,40.00,7,3,19,0.00
2013-9-26,57,46,40,39,37,35,86,72,50,0.00,40.00,6,4,21,0.00
2013-9-27,53,45,37,47,39,31,100,83,53,0.00,40.00,4,1,14,0.21
2013-9-28,57,49,40,54,47,-100,100,95,71,0.00,40.00,10,4,33,1.53
2013-9-29,47,44,40,47,43,38,100,98,81,0.00,40.00,10,3,27,1.40
2013-9-30,49,42,38,48,40,36,100,93,76,0.00,40.00,11,7,37,1.00
2013-10-1,47,38,34,38,36,34,100,93,72,0.00,40.00,3,1,17,0.28
2013-10-2,47,39,32,39,35,32,100,88,61,0.00,40.00,5,1,12,0.01
2013-10-3,55,41,34,40,36,31,100,83,43,0.00,40.00,4,2,19,0.01
2013-10-4,59,46,37,36,32,28,89,61,31,0.00,40.00,6,2,17,0.00
2013-10-5,67,49,37,43,36,29,93,65,25,0.00,40.00,3,1,11,0.00
2013-10-6,68,52,39,44,38,33,87,61,39,0.00,40.00,3,0,10,0.00
2013-10-7,52,46,40,43,37,28,94,74,42,0.00,40.00,8,4,24,0.03
2013-10-8,45,40,34,43,38,34,100,94,86,0.00,40.00,10,5,28,0.27
2013-10-9,50,40,33,41,36,33,100,90,61,0.00,40.00,2,0,9,0.02
2013-10-10,54,45,38,41,36,28,100,71,51,0.00,40.00,6,3,19,0.00
2013-10-11,47,41,34,41,37,34,100,87,70,0.00,40.00,4,1,11,0.00
2013-10-12,45,40,37,41,36,-100,100,91,78,0.00,40.00,4,1,14,0.02
2013-10-13,58,44,35,40,36,34,100,79,43,0.00,40.00,4,0,10,0.01
2013-10-14,58,44,35,38,33,27,99,68,37,0.00,40.00,5,1,14,0.00
2013-10-15,57,44,36,33,30,27,76,59,37,0.00,40.00,5,2,17,0.00
2013-10-16,59,46,36,36,31,28,74,58,37,0.00,40.00,5,1,11,0.00
2013-10-17,60,46,39,37,33,29,76,61,39,0.00,40.00,6,2,16,0.00
2013-10-18,60,47,40,35,32,30,72,58,35,0.00,40.00,6,1,12,0.00
2013-10-19,72,48,36,44,31,-100,79,55,26,0.00,40.00,2,0,12,0.00
2013-10-20,73,55,44,40,33,27,56,44,26,0.00,40.00,4,0,13,0.00
2013-10-21,72,56,48,42,36,32,63,49,30,0.00,40.00,6,1,15,0.00
2013-10-22,65,53,45,42,37,32,77,56,41,0.00,40.00,4,1,11,0.00
2013-10-23,65,51,44,45,40,35,81,66,48,0.00,40.00,5,1,11,0.00
2013-10-24,65,50,43,46,43,37,99,77,48,0.00,40.00,4,1,10,0.00
2013-10-25,68,52,42,49,45,42,100,81,45,0.00,40.00,2,0,6,0.00
2013-10-26,60,47,40,47,41,-100,100,82,60,0.00,40.00,3,0,8,0.00
2013-10-27,49,42,39,42,38,29,100,89,46,0.00,40.00,12,3,43,0.24
2013-10-28,44,35,30,40,28,-100,100,80,46,0.00,40.00,7,1,16,0.16
2013-10-29,50,36,28,22,20,17,67,52,30,0.00,40.00,4,1,11,0.01
2013-10-30,55,43,32,31,26,22,74,52,33,0.00,40.00,6,3,18,0.00
2013-10-31,54,45,39,47,42,31,100,88,60,0.00,40.00,8,3,25,0.00
2013-11-1,59,46,37,41,36,29,100,72,32,0.00,40.00,5,1,16,0.00
2013-11-2,45,38,32,45,36,-100,100,93,78,0.00,40.00,12,6,35,0.28
2013-11-3,38,33,32,33,32,31,100,98,77,0.00,40.00,9,5,28,0.02
2013-11-4,36,34,32,36,34,31,100,100,97,0.00,40.00,5,1,22,0.17
2013-11-5,47,39,32,46,39,32,100,99,93,0.00,40.00,7,2,22,0.32
2013-11-6,47,41,37,46,41,37,100,100,95,0.00,40.00,0,0,11,0.13
2013-11-7,43,38,35,43,37,33,100,96,82,0.00,40.00,14,5,36,0.29
2013-11-8,40,36,33,39,36,33,100,98,91,0.00,40.00,10,2,29,0.09
2013-11-9,40,35,32,40,34,-100,100,98,99,0.00,40.00,1,0,6,0.01
2013-11-10,54,40,33,46,39,33,100,96,74,0.00,40.00,1,0,5,0.00
2013-11-11,38,37,36,38,37,36,100,100,100,0.00,40.00,5,2,15,0.01
2013-11-12,53,42,37,51,41,37,100,99,91,0.00,40.00,3,0,11,0.09
2013-11-13,54,41,34,42,38,34,100,90,57,0.00,40.00,5,1,14,0.01
2013-11-14,42,37,34,34,29,20,99,73,50,0.00,40.00,9,4,25,0.00
2013-11-15,41,36,32,30,27,24,81,68,54,0.00,40.00,11,7,31,0.00
2013-11-16,40,34,32,34,29,-100,98,89,71,0.00,40.00,12,8,33,0.20
2013-11-17,43,37,33,39,34,31,98,90,71,0.00,40.00,5,1,17,0.42
2013-11-18,46,39,33,41,36,32,98,88,69,0.00,40.00,5,1,17,0.06
2013-11-19,45,40,32,43,38,28,99,91,76,0.00,40.00,8,2,27,0.66
2013-11-20,34,27,20,29,10,-3,84,51,27,0.00,40.00,6,2,15,0.01
2013-11-21,35,24,19,4,-2,-7,46,31,21,0.00,40.00,5,2,13,0.00
2013-11-22,33,24,17,12,5,-7,60,44,24,0.00,40.00,6,3,13,0.00
2013-11-23,37,25,21,15,10,-100,74,59,28,0.00,40.00,6,2,14,0.00
2013-11-24,44,28,21,19,16,12,73,61,36,0.00,40.00,0,0,5,0.00
2013-11-25,42,29,23,20,18,15,79,64,37,0.00,40.00,1,0,5,0.00
2013-11-26,41,30,25,24,20,18,78,65,44,0.00,40.00,0,0,4,0.00
2013-11-27,37,30,26,24,22,18,89,73,57,0.00,40.00,4,1,10,0.00
2013-11-28,47,32,25,28,24,22,92,75,47,0.00,40.00,0,0,7,0.00
2013-11-29,45,39,33,32,25,21,73,57,49,0.00,40.00,5,0,11,0.00
2013-11-30,50,42,39,35,25,-100,82,54,39,0.00,40.00,5,1,18,0.00
2013-12-1,48,44,37,45,41,33,97,88,81,0.00,40.00,10,6,35,1.31
2013-12-2,41,31,26,39,28,22,94,90,81,0.00,40.00,9,5,32,1.57
2013-12-3,29,22,13,22,16,6,92,80,56,0.00,40.00,6,1,16,0.01
2013-12-4,26,13,6,7,4,-1,86,68,39,0.00,40.00,4,1,11,0.00
2013-12-5,19,10,3,9,3,-1,86,75,55,0.00,40.00,2,0,7,0.00
2013-12-6,12,10,8,6,5,4,83,80,76,0.00,40.00,6,2,13,0.00
2013-12-7,14,5,0,4,-3,-100,81,74,47,0.00,40.00,3,1,9,0.00
2013-12-8,20,8,1,11,3,-4,87,80,66,0.00,40.00,0,0,6,0.00
2013-12-9,34,24,13,24,18,8,84,79,66,0.00,40.00,7,3,25,0.00
2013-12-10,37,30,24,27,24,20,94,79,59,0.00,40.00,7,2,19,0.00
2013-12-11,35,24,19,24,21,17,94,88,64,0.00,40.00,0,0,4,0.00
2013-12-12,40,28,18,32,24,16,93,85,61,0.00,40.00,2,0,6,0.00
2013-12-13,45,36,32,35,32,30,95,87,63,0.00,40.00,5,1,14,0.19
2013-12-14,48,38,33,35,28,-100,91,72,49,0.00,40.00,0,0,4,0.27
2013-12-15,50,39,32,37,30,21,83,68,45,0.00,40.00,5,2,19,0.26
2013-12-16,47,39,33,29,21,14,82,53,29,0.00,40.00,2,0,11,0.13
2013-12-17,60,46,37,32,19,13,70,34,24,0.00,40.00,5,2,19,0.00
2013-12-18,41,36,26,33,27,18,79,71,59,0.00,40.00,5,3,20,0.00
2013-12-19,34,26,22,19,15,11,86,64,38,0.00,40.00,4,0,11,0.00
2013-12-20,45,35,25,38,24,9,80,63,40,0.00,40.00,13,6,34,0.00
2013-12-21,46,40,38,34,30,-100,82,70,52,0.00,40.00,12,6,40,0.00
2013-12-22,47,42,36,36,34,32,89,72,61,0.00,40.00,8,3,24,0.00
2013-12-23,49,39,32,43,33,21,91,81,63,0.00,40.00,11,5,39,0.09
2013-12-24,43,32,27,26,22,11,78,66,45,0.00,40.00,6,1,19,0.01
2013-12-25,42,33,27,29,23,20,87,67,46,0.00,40.00,0,0,3,0.00
2013-12-26,59,42,38,31,25,21,63,51,35,0.00,40.00,1,0,5,0.00
2013-12-27,46,39,33,36,25,19,78,57,42,0.00,40.00,8,2,21,0.00
2013-12-28,44,34,29,30,23,-100,89,70,45,0.00,40.00,4,1,12,0.00
2013-12-29,50,37,29,33,24,14,80,61,34,0.00,40.00,5,1,16,0.00
2013-12-30,51,45,39,39,35,31,84,68,51,0.00,40.00,3,0,15,0.00
2013-12-31,49,41,34,34,29,21,85,62,44,0.00,40.00,6,1,21,0.00
2014-1-1,46,36,31,33,29,22,95,76,60,0.00,40.00,0,0,6,0.00
2014-1-2,56,40,31,33,29,24,95,70,40,0.00,40.00,4,0,17,0.00